Time;durP1;ratioP1;P1;durP2;ratioP2;P2;SDS_P1;SDS_P2;PMS_P1;PMS_P2;Temp;Humidity;BMP_temperature;BMP_pressure;BME280_temperature;BME280_humidity;BME280_pressure;Samples;Min_cycle;Max_cycle;Signal;HPM_P1;HPM_P2
2022/09/13 00:00:48;;;;;;;1.85;1.20;;;18.10;96.60;;;;;;6181488;23;20475;-81
2022/09/13 00:03:14;;;;;;;3.88;1.15;;;;;;;;;;6181421;23;20005;-82
2022/09/13 00:05:40;;;;;;;6.15;1.20;;;18.00;99.90;;;;;;6181688;23;20414;-81
2022/09/13 00:08:07;;;;;;;1.17;1.08;;;18.10;96.80;;;;;;6181884;23;20005;-82
2022/09/13 00:10:35;;;;;;;1.42;1.33;;;18.20;96.60;;;;;;6181633;23;20009;-81
2022/09/13 00:13:01;;;;;;;1.73;1.17;;;;;;;;;;6181569;23;20519;-82
2022/09/13 00:15:27;;;;;;;1.20;1.10;;;18.20;96.60;;;;;;6181271;23;20005;-82
2022/09/13 00:17:53;;;;;;;2.45;1.00;;;;;;;;;;6181377;23;20017;-81
2022/09/13 00:20:19;;;;;;;2.53;1.65;;;;;;;;;;6181606;23;20016;-81
2022/09/13 00:22:45;;;;;;;2.20;1.20;;;18.00;98.20;;;;;;6181893;23;20048;-81
2022/09/13 00:25:10;;;;;;;3.05;1.17;;;18.00;99.50;;;;;;6181569;23;20594;-81
2022/09/13 00:27:36;;;;;;;1.33;1.23;;;17.80;99.90;;;;;;6181149;23;20012;-82
2022/09/13 00:30:05;;;;;;;3.42;1.25;;;18.00;96.90;;;;;;6181798;23;20005;-81
2022/09/13 00:32:31;;;;;;;1.50;1.40;;;18.50;99.90;;;;;;6181289;23;20044;-81
2022/09/13 00:34:57;;;;;;;2.60;1.50;;;;;;;;;;6181353;23;20349;-81
2022/09/13 00:37:23;;;;;;;1.73;1.30;;;;;;;;;;6181472;23;20052;-82
2022/09/13 00:39:48;;;;;;;1.65;1.30;;;18.10;99.90;;;;;;6181554;23;20005;-81
2022/09/13 00:42:14;;;;;;;2.20;1.40;;;;;;;;;;6181263;23;20033;-81
2022/09/13 00:44:49;;;;;;;0.88;0.88;;;17.70;97.80;;;;;;6180701;23;20356;-81
2022/09/13 00:47:23;;;;;;;2.03;1.23;;;17.90;97.70;;;;;;6181511;23;20008;-81
2022/09/13 00:49:55;;;;;;;1.35;1.20;;;18.00;97.70;;;;;;6181645;23;20031;-81
2022/09/13 00:52:23;;;;;;;2.15;1.15;;;18.10;97.40;;;;;;6181291;23;20348;-81
2022/09/13 00:55:06;;;;;;;2.05;1.10;;;18.40;99.90;;;;;;6182728;23;20075;-81
2022/09/13 00:57:35;;;;;;;1.60;1.30;;;18.10;97.10;;;;;;6183391;23;20001;-81
2022/09/13 01:00:12;;;;;;;1.58;1.42;;;17.80;99.90;;;;;;6182961;23;20008;-82
2022/09/13 01:02:51;;;;;;;1.92;1.50;;;18.00;97.60;;;;;;6183407;23;20005;-81
2022/09/13 01:05:23;;;;;;;1.42;1.33;;;18.10;99.90;;;;;;6183559;23;20020;-81
2022/09/13 01:07:49;;;;;;;2.08;1.88;;;18.00;97.70;;;;;;6183591;23;20001;-81
2022/09/13 01:10:16;;;;;;;3.35;1.33;;;;;;;;;;6182954;23;20009;-82
2022/09/13 01:12:52;;;;;;;1.30;1.10;;;18.00;97.50;;;;;;6183660;23;20001;-82
2022/09/13 01:15:18;;;;;;;1.27;1.17;;;;;;;;;;6182828;23;20009;-82
2022/09/13 01:17:44;;;;;;;1.73;1.15;;;18.40;99.30;;;;;;6182916;23;20360;-81
2022/09/13 01:20:11;;;;;;;1.65;1.10;;;18.40;96.90;;;;;;6182871;23;20075;-81
2022/09/13 01:23:10;;;;;;;5.22;1.10;;;18.40;96.90;;;;;;6182991;23;20043;-82
2022/09/13 01:26:03;;;;;;;7.75;1.17;;;18.30;97.00;;;;;;6182980;23;20020;-80
2022/09/13 01:28:44;;;;;;;3.00;1.10;;;18.30;97.20;;;;;;6182242;23;20005;-81
2022/09/13 01:31:31;;;;;;;1.30;1.10;;;18.20;99.90;;;;;;6156635;23;20005;-82
2022/09/13 01:34:29;;;;;;;1.23;0.98;;;18.10;97.50;;;;;;6156679;23;20005;-82
2022/09/13 01:37:10;;;;;;;1.70;1.20;;;18.10;97.90;;;;;;6091034;23;20014;-82
2022/09/13 01:39:36;;;;;;;1.65;0.90;;;;;;;;;;6091076;23;20457;-81
2022/09/13 01:42:16;;;;;;;1.42;1.20;;;18.40;99.90;;;;;;6090965;23;20014;-81
2022/09/13 01:45:01;;;;;;;1.35;1.25;;;18.90;99.70;;;;;;6090507;23;20049;-82
2022/09/13 01:47:54;;;;;;;1.80;1.30;;;18.10;97.10;;;;;;6091335;23;20010;-82
2022/09/13 01:50:46;;;;;;;3.42;1.40;;;18.40;97.10;;;;;;6091244;23;20480;-81
2022/09/13 01:53:29;;;;;;;1.50;1.00;;;18.70;99.90;;;;;;6091332;23;20432;-81
2022/09/13 01:56:33;;;;;;;1.55;1.00;;;18.20;97.40;;;;;;6091245;23;20006;-80
2022/09/13 01:59:09;;;;;;;2.63;1.08;;;18.20;97.60;;;;;;6086000;23;20014;-82
2022/09/13 02:01:53;;;;;;;1.70;1.20;;;18.20;97.60;;;;;;6090783;23;20006;-81
2022/09/13 02:04:24;;;;;;;1.45;1.20;;;18.20;97.60;;;;;;6090968;23;20062;-81
2022/09/13 02:07:04;;;;;;;1.05;0.90;;;18.20;97.60;;;;;;6091129;23;20075;-81
2022/09/13 02:09:34;;;;;;;1.75;1.00;;;18.00;99.40;;;;;;6091118;23;20003;-81
2022/09/13 02:12:09;;;;;;;6.13;1.20;;;18.10;97.70;;;;;;6090889;23;20034;-81
2022/09/13 02:14:38;;;;;;;2.03;1.25;;;18.50;99.90;;;;;;6156598;23;20459;-81
2022/09/13 02:17:15;;;;;;;1.00;1.00;;;18.10;99.90;;;;;;6182011;23;20017;-81
2022/09/13 02:19:51;;;;;;;2.00;1.50;;;18.20;97.60;;;;;;6182854;23;20054;-81
2022/09/13 02:22:22;;;;;;;3.05;1.13;;;18.20;97.80;;;;;;6182520;23;20005;-81
2022/09/13 02:24:53;;;;;;;2.60;1.38;;;18.30;97.60;;;;;;6182375;23;20009;-81
2022/09/13 02:27:23;;;;;;;4.13;1.27;;;18.30;97.70;;;;;;6182562;23;20080;-81
2022/09/13 02:29:52;;;;;;;1.65;1.38;;;18.20;97.80;;;;;;6182750;23;20009;-81
2022/09/13 02:32:44;;;;;;;1.23;1.13;;;18.50;99.90;;;;;;6182463;23;19997;-81
2022/09/13 02:35:23;;;;;;;5.15;1.27;;;18.10;98.20;;;;;;6181875;23;20044;-81
2022/09/13 02:38:01;;;;;;;1.10;1.10;;;18.00;99.70;;;;;;6182214;23;20080;-81
2022/09/13 02:40:33;;;;;;;1.38;1.27;;;18.00;99.90;;;;;;6182633;23;20059;-81
2022/09/13 02:43:15;;;;;;;1.85;1.13;;;18.30;97.90;;;;;;6182060;23;20001;-81
2022/09/13 02:46:08;;;;;;;1.05;0.95;;;18.30;97.80;;;;;;6180216;23;20579;-81
2022/09/13 02:48:40;;;;;;;1.83;1.52;;;18.30;97.70;;;;;;6033678;23;20035;-81
2022/09/13 02:51:45;;;;;;;1.85;1.17;;;18.10;98.10;;;;;;6033292;23;20362;-81
2022/09/13 02:54:10;;;;;;;1.88;1.73;;;;;;;;;;5893453;24;20155;-81
2022/09/13 02:56:44;;;;;;;1.15;1.05;;;17.40;99.50;;;;;;5893951;24;20434;-81
2022/09/13 02:59:18;;;;;;;1.58;1.25;;;17.50;99.30;;;;;;5894035;24;20021;-81
2022/09/13 03:01:49;;;;;;;1.13;1.02;;;17.80;99.90;;;;;;5894183;24;20017;-81
2022/09/13 03:04:15;;;;;;;2.05;1.55;;;;;;;;;;5894199;24;20021;-81
2022/09/13 03:06:41;;;;;;;1.77;1.55;;;;;;;;;;5894009;24;20017;-81
2022/09/13 03:09:08;;;;;;;1.08;0.95;;;;;;;;;;5894069;24;20017;-82
2022/09/13 03:11:54;;;;;;;3.70;1.50;;;17.80;99.90;;;;;;5893557;24;20002;-81
2022/09/13 03:14:20;;;;;;;2.20;1.67;;;;;;;;;;5892783;24;20070;-81
2022/09/13 03:17:12;;;;;;;1.85;1.45;;;17.90;99.90;;;;;;5893670;24;20266;-81
2022/09/13 03:20:33;;;;;;;2.35;1.63;;;17.10;99.90;;;;;;5866752;24;20016;-81
2022/09/13 03:23:07;;;;;;;2.58;1.52;;;17.10;99.90;;;;;;5786978;24;20015;-81
2022/09/13 03:25:53;;;;;;;2.42;1.50;;;17.40;99.90;;;;;;5851866;24;20021;-82
2022/09/13 03:28:38;;;;;;;1.47;1.27;;;17.70;99.90;;;;;;5898329;24;20013;-82
2022/09/13 03:31:32;;;;;;;1.27;1.13;;;17.80;99.90;;;;;;6004686;23;20244;-81
2022/09/13 03:34:14;;;;;;;2.03;1.70;;;17.30;99.90;;;;;;6003299;23;20083;-82
2022/09/13 03:37:08;;;;;;;1.70;1.60;;;17.50;99.80;;;;;;6004596;23;20011;-82
2022/09/13 03:39:44;;;;;;;1.35;1.25;;;17.50;99.80;;;;;;6001448;23;20008;-82
2022/09/13 03:42:26;;;;;;;1.60;1.10;;;17.50;99.90;;;;;;6004619;23;20012;-81
2022/09/13 03:44:54;;;;;;;5.35;1.40;;;17.50;99.80;;;;;;6003898;23;20015;-81
2022/09/13 03:47:22;;;;;;;1.27;1.17;;;17.60;99.90;;;;;;6004593;23;20031;-80
2022/09/13 03:49:50;;;;;;;3.85;1.45;;;17.60;99.90;;;;;;6004595;23;20043;-81
2022/09/13 03:52:16;;;;;;;1.98;1.55;;;17.30;99.90;;;;;;6004043;23;20042;-81
2022/09/13 03:54:42;;;;;;;4.22;1.70;;;;;;;;;;6004548;23;20008;-80
2022/09/13 03:57:11;;;;;;;1.38;1.27;;;17.20;99.90;;;;;;6044024;23;20050;-81
2022/09/13 03:59:38;;;;;;;3.88;1.27;;;17.00;99.90;;;;;;6171695;23;20013;-81
2022/09/13 04:02:08;;;;;;;2.95;1.65;;;17.30;99.90;;;;;;6181954;23;20028;-81
2022/09/13 04:04:34;;;;;;;2.47;1.30;;;;;;;;;;6181628;23;20080;-81
2022/09/13 04:07:02;;;;;;;2.20;1.30;;;;;;;;;;6181447;23;20448;-81
2022/09/13 04:09:29;;;;;;;2.28;1.60;;;;;;;;;;6154972;23;20005;-81
2022/09/13 04:11:55;;;;;;;2.75;1.17;;;;;;;;;;6181171;23;20002;-81
2022/09/13 04:14:21;;;;;;;2.22;1.48;;;17.20;99.90;;;;;;6181169;23;20059;-82
2022/09/13 04:16:47;;;;;;;2.65;1.50;;;;;;;;;;6181090;23;20067;-81
2022/09/13 04:19:12;;;;;;;1.55;1.45;;;17.20;99.90;;;;;;6155180;23;20048;-81
2022/09/13 04:21:38;;;;;;;3.45;1.33;;;;;;;;;;6181466;23;20009;-80
2022/09/13 04:24:04;;;;;;;6.50;1.17;;;;;;;;;;6181425;23;20001;-81
2022/09/13 04:26:30;;;;;;;2.05;1.63;;;;;;;;;;6181652;23;20009;-80
2022/09/13 04:28:56;;;;;;;2.50;1.92;;;;;;;;;;6182536;23;20012;-80
2022/09/13 04:31:22;;;;;;;1.85;1.27;;;;;;;;;;6183481;23;20005;-81
2022/09/13 04:33:49;;;;;;;5.90;1.80;;;17.50;99.90;;;;;;6157162;23;20080;-81
2022/09/13 04:36:15;;;;;;;2.28;1.50;;;17.40;99.90;;;;;;6183587;23;20353;-81
2022/09/13 04:38:41;;;;;;;2.47;1.50;;;;;;;;;;6183575;23;20009;-81
2022/09/13 04:41:09;;;;;;;1.98;1.45;;;;;;;;;;6183311;23;20059;-81
2022/09/13 04:43:35;;;;;;;1.63;1.33;;;;;;;;;;6183754;23;20008;-81
2022/09/13 04:46:01;;;;;;;4.07;1.88;;;;;;;;;;6182804;23;20020;-81
2022/09/13 04:48:27;;;;;;;4.75;1.40;;;;;;;;;;6183242;23;20001;-81
2022/09/13 04:50:53;;;;;;;3.38;3.08;;;;;;;;;;6183298;23;20396;-81
2022/09/13 04:53:19;;;;;;;2.50;1.27;;;;;;;;;;6183256;23;20002;-81
2022/09/13 04:55:45;;;;;;;2.15;1.80;;;;;;;;;;6183574;23;20035;-81
2022/09/13 04:58:11;;;;;;;3.05;2.05;;;;;;;;;;6183275;23;20400;-81
2022/09/13 05:00:37;;;;;;;4.50;1.27;;;;;;;;;;6183074;23;20025;-81
2022/09/13 05:03:03;;;;;;;2.10;1.23;;;;;;;;;;6183167;23;20005;-81
2022/09/13 05:05:31;;;;;;;1.95;1.20;;;;;;;;;;6182430;23;20016;-81
2022/09/13 05:07:56;;;;;;;1.98;1.42;;;17.60;99.90;;;;;;6183127;23;20026;-80
2022/09/13 05:10:23;;;;;;;3.95;1.40;;;;;;;;;;6183105;23;20005;-81
2022/09/13 05:12:49;;;;;;;1.20;1.10;;;;;;;;;;6183500;23;20007;-81
2022/09/13 05:15:15;;;;;;;2.80;1.90;;;;;;;;;;6182796;23;20435;-81
2022/09/13 05:17:41;;;;;;;1.92;1.55;;;;;;;;;;6183001;23;20017;-81
2022/09/13 05:20:07;;;;;;;8.73;1.42;;;17.60;99.90;;;;;;6182248;23;20001;-81
2022/09/13 05:22:32;;;;;;;2.80;1.40;;;18.00;99.90;;;;;;6182463;23;20005;-80
2022/09/13 05:24:58;;;;;;;3.80;1.67;;;;;;;;;;6182513;23;20013;-81
2022/09/13 05:27:24;;;;;;;1.13;1.00;;;17.60;99.90;;;;;;6183133;23;20313;-81
2022/09/13 05:29:50;;;;;;;2.63;1.70;;;;;;;;;;6178148;23;20013;-81
2022/09/13 05:32:16;;;;;;;1.50;1.15;;;;;;;;;;6180806;23;20005;-80
2022/09/13 05:34:42;;;;;;;1.85;1.63;;;;;;;;;;6179990;23;20079;-81
2022/09/13 05:37:07;;;;;;;2.65;1.23;;;18.00;99.90;;;;;;6178975;23;20375;-81
2022/09/13 05:39:35;;;;;;;2.33;1.60;;;;;;;;;;6178973;23;20016;-81
2022/09/13 05:42:01;;;;;;;1.33;1.20;;;;;;;;;;6179253;23;20005;-81
2022/09/13 05:44:27;;;;;;;5.60;1.38;;;;;;;;;;6178376;23;20016;-81
2022/09/13 05:46:52;;;;;;;2.70;1.35;;;18.50;99.90;;;;;;6153239;23;20451;-81
2022/09/13 05:49:18;;;;;;;2.75;1.52;;;;;;;;;;6179648;23;20027;-81
2022/09/13 05:51:44;;;;;;;4.45;1.67;;;;;;;;;;6179337;23;20001;-83
2022/09/13 05:54:11;;;;;;;3.35;1.30;;;18.50;99.50;;;;;;6153339;23;20071;-80
2022/09/13 05:56:37;;;;;;;1.67;1.40;;;;;;;;;;6179471;23;20080;-77
2022/09/13 05:59:03;;;;;;;3.85;1.52;;;;;;;;;;6179564;23;20549;-78
2022/09/13 06:01:29;;;;;;;2.15;1.10;;;;;;;;;;6154163;23;20357;-80
2022/09/13 06:03:58;;;;;;;2.27;1.60;;;18.50;98.90;;;;;;6180023;23;20008;-79
2022/09/13 06:06:24;;;;;;;2.67;1.45;;;;;;;;;;6179810;23;20013;-78
2022/09/13 06:08:53;;;;;;;2.80;1.80;;;;;;;;;;6180605;23;19997;-81
2022/09/13 06:11:19;;;;;;;2.00;1.30;;;;;;;;;;6180806;23;20384;-82
2022/09/13 06:13:45;;;;;;;1.50;1.35;;;;;;;;;;6180839;23;20033;-78
2022/09/13 06:16:12;;;;;;;1.35;1.25;;;19.80;97.80;;;;;;6179918;23;19997;-78
2022/09/13 06:18:38;;;;;;;3.17;1.70;;;19.60;97.30;;;;;;6181065;23;20019;-78
2022/09/13 06:21:08;;;;;;;3.55;1.52;;;20.20;99.90;;;;;;6180430;23;20491;-79
2022/09/13 06:23:35;;;;;;;3.28;1.98;;;20.70;99.90;;;;;;6181097;23;20055;-79
2022/09/13 06:26:09;;;;;;;1.70;1.60;;;21.70;95.40;;;;;;6181259;23;20523;-79
2022/09/13 06:28:35;;;;;;;1.58;1.48;;;;;;;;;;6179775;23;20004;-79
2022/09/13 06:31:01;;;;;;;5.35;1.70;;;;;;;;;;6180782;23;20334;-79
2022/09/13 06:33:27;;;;;;;2.47;1.95;;;;;;;;;;6180686;23;20006;-79
2022/09/13 06:35:53;;;;;;;4.90;1.75;;;;;;;;;;6180090;23;19997;-79
2022/09/13 06:38:19;;;;;;;3.63;1.52;;;;;;;;;;6180303;23;20452;-79
2022/09/13 06:40:45;;;;;;;1.95;1.45;;;;;;;;;;6180480;23;20440;-80
2022/09/13 06:43:11;;;;;;;2.80;1.85;;;;;;;;;;6170567;23;20055;-85
2022/09/13 06:45:37;;;;;;;3.13;1.48;;;;;;;;;;6176164;23;20071;-78
2022/09/13 06:48:03;;;;;;;2.37;0.80;;;;;;;;;;6177463;23;20336;-78
2022/09/13 06:50:29;;;;;;;1.52;1.08;;;40.20;48.00;;;;;;6176804;23;20008;-78
2022/09/13 06:52:57;;;;;;;3.57;0.83;;;41.70;43.60;;;;;;6177424;23;20506;-79
2022/09/13 06:55:23;;;;;;;3.00;0.88;;;;;;;;;;6177687;23;20005;-79
2022/09/13 06:57:49;;;;;;;5.63;1.08;;;;;;;;;;6174929;23;20005;-78
2022/09/13 07:00:16;;;;;;;1.35;0.75;;;;;;;;;;6176519;23;20036;-78
2022/09/13 07:02:42;;;;;;;0.80;0.57;;;;;;;;;;6176906;23;20009;-78
2022/09/13 07:05:09;;;;;;;1.65;0.70;;;;;;;;;;6177264;23;20507;-77
2022/09/13 07:07:35;;;;;;;3.17;0.80;;;;;;;;;;6175636;23;20033;-77
2022/09/13 07:10:01;;;;;;;3.53;0.77;;;;;;;;;;6175983;23;20131;-77
2022/09/13 07:12:27;;;;;;;4.03;0.82;;;;;;;;;;6176697;23;20016;-82
2022/09/13 07:14:53;;;;;;;1.33;0.77;;;;;;;;;;6176049;23;20005;-83
2022/09/13 07:17:19;;;;;;;4.15;1.10;;;;;;;;;;6171387;23;20495;-82
2022/09/13 07:19:45;;;;;;;1.83;1.17;;;;;;;;;;6175738;23;20008;-83
2022/09/13 07:22:11;;;;;;;1.93;0.93;;;;;;;;;;6178199;23;20009;-82
2022/09/13 07:24:37;;;;;;;1.23;0.98;;;;;;;;;;6177620;23;20036;-81
2022/09/13 07:27:03;;;;;;;1.70;0.93;;;;;;;;;;6173374;23;20051;-80
2022/09/13 07:29:29;;;;;;;2.72;1.27;;;;;;;;;;6176275;23;20449;-80
2022/09/13 07:31:57;;;;;;;3.83;1.02;;;;;;;;;;6178962;23;20013;-80
2022/09/13 07:34:24;;;;;;;3.45;1.08;;;25.10;64.80;;;;;;6176700;23;20001;-79
2022/09/13 07:36:51;;;;;;;3.05;1.10;;;;;;;;;;6174017;23;20005;-79
2022/09/13 07:39:18;;;;;;;1.65;0.98;;;25.00;66.10;;;;;;6177442;23;20005;-77
2022/09/13 07:41:45;;;;;;;3.83;1.38;;;25.20;72.60;;;;;;6177625;23;20616;-78
2022/09/13 07:44:11;;;;;;;1.75;1.23;;;;;;;;;;6176717;23;20008;-83
2022/09/13 07:46:42;;;;;;;3.07;0.83;;;25.40;66.30;;;;;;6172870;23;20016;-82
2022/09/13 07:49:10;;;;;;;4.70;1.58;;;25.70;65.60;;;;;;6176769;23;20012;-81
2022/09/13 07:51:38;;;;;;;1.70;1.33;;;26.00;65.30;;;;;;6177334;23;20009;-80
2022/09/13 07:54:06;;;;;;;2.08;1.20;;;26.40;64.40;;;;;;6177693;23;20005;-84
2022/09/13 07:56:34;;;;;;;3.97;1.75;;;27.00;74.60;;;;;;6171746;23;20020;-83
2022/09/13 07:59:02;;;;;;;1.90;1.15;;;27.60;61.20;;;;;;6176415;23;20001;-82
2022/09/13 08:01:32;;;;;;;3.42;1.65;;;29.00;62.60;;;;;;6176897;23;20032;-83
2022/09/13 08:04:06;;;;;;;3.05;1.48;;;30.40;66.30;;;;;;6176894;23;20012;-82
2022/09/13 08:06:34;;;;;;;1.38;1.27;;;34.00;52.90;;;;;;6172304;23;20325;-84
2022/09/13 08:09:00;;;;;;;2.22;1.23;;;;;;;;;;6175289;23;20472;-86
2022/09/13 08:11:32;;;;;;;2.78;1.33;;;41.20;40.90;;;;;;6149148;23;20005;-84
2022/09/13 08:13:58;;;;;;;3.92;1.30;;;;;;;;;;6178108;23;20081;-85
2022/09/13 08:16:24;;;;;;;;;;;44.00;38.40;;;;;;6172280;23;20091;-85
2022/09/13 08:18:52;;;;;;;3.83;1.10;;;48.60;34.70;;;;;;6177408;23;19900;-84
2022/09/13 08:21:19;;;;;;;2.97;1.05;;;;;;;;;;6177010;23;20004;-87
2022/09/13 08:23:45;;;;;;;3.65;1.00;;;50.80;36.60;;;;;;6178608;23;20020;-85
2022/09/13 08:26:12;;;;;;;1.83;1.00;;;;;;;;;;6172319;23;20100;-82
2022/09/13 08:28:39;;;;;;;3.92;0.40;;;50.60;31.00;;;;;;6175646;23;20015;-74
2022/09/13 08:31:14;;;;;;;1.35;0.68;;;51.10;32.20;;;;;;6177419;23;20447;-74
2022/09/13 08:33:43;;;;;;;0.95;0.77;;;50.60;35.60;;;;;;6177436;23;20408;-73
2022/09/13 08:36:08;;;;;;;4.82;1.05;;;51.70;35.10;;;;;;6172970;23;20598;-74
2022/09/13 08:38:34;;;;;;;4.32;1.48;;;;;;;;;;6150372;23;20032;-80
2022/09/13 08:41:26;;;;;;;2.75;1.00;;;54.40;27.30;;;;;;6175555;23;20005;-80
2022/09/13 08:43:52;;;;;;;1.55;0.90;;;;;;;;;;6085222;23;20006;-85
2022/09/13 08:46:32;;;;;;;4.57;1.20;;;55.80;27.60;;;;;;6079786;23;20049;-79
2022/09/13 08:49:02;;;;;;;2.97;1.02;;;56.40;27.20;;;;;;6084644;23;20029;-81
2022/09/13 08:51:28;;;;;;;1.10;1.10;;;;;;;;;;6085363;23;20007;-82
2022/09/13 08:53:56;;;;;;;2.67;1.55;;;57.60;28.20;;;;;;6085283;23;20012;-80
2022/09/13 08:56:30;;;;;;;2.80;1.08;;;56.60;26.30;;;;;;6080750;23;20006;-80
2022/09/13 08:59:30;;;;;;;2.05;0.95;;;53.40;26.90;;;;;;6083700;23;20446;-80
2022/09/13 09:02:30;;;;;;;1.48;0.75;;;50.90;28.10;;;;;;6085311;23;20435;-80
2022/09/13 09:05:17;;;;;;;2.85;0.80;;;50.70;28.50;;;;;;6065672;23;20018;-82
2022/09/13 09:07:51;;;;;;;7.60;1.10;;;52.70;27.90;;;;;;6078729;23;20017;-81
2022/09/13 09:10:24;;;;;;;2.80;0.88;;;54.00;27.00;;;;;;6082596;23;20034;-80
2022/09/13 09:12:56;;;;;;;6.93;0.88;;;51.80;30.40;;;;;;6084544;23;20011;-82
2022/09/13 09:15:26;;;;;;;2.00;0.60;;;48.60;28.20;;;;;;6085870;23;20011;-81
2022/09/13 09:18:02;;;;;;;4.15;0.63;;;45.40;29.80;;;;;;6081947;23;20025;-81
2022/09/13 09:20:36;;;;;;;2.47;0.80;;;45.20;30.70;;;;;;6117812;23;20012;-83
2022/09/13 09:23:31;;;;;;;1.77;0.60;;;45.00;37.40;;;;;;6179065;23;20025;-81
2022/09/13 09:26:04;;;;;;;;;;;45.20;30.90;;;;;;6169533;23;20017;-81
2022/09/13 09:28:30;;;;;;;3.38;0.50;;;;;;;;;;6176927;23;20218;-81
2022/09/13 09:31:47;;;;;;;1.15;0.63;;;44.00;38.30;;;;;;6179841;23;20081;-80
2022/09/13 09:34:56;;;;;;;2.95;0.40;;;43.80;31.20;;;;;;6086214;23;20413;-81
2022/09/13 09:37:25;;;;;;;3.95;0.77;;;42.40;39.80;;;;;;6080493;23;20002;-83
2022/09/13 09:39:59;;;;;;;2.88;0.60;;;41.30;33.70;;;;;;6086516;23;20951;-82
2022/09/13 09:42:28;;;;;;;0.90;0.70;;;39.70;34.70;;;;;;6086269;23;20069;-80
2022/09/13 09:45:03;;;;;;;0.90;0.70;;;38.00;36.30;;;;;;6086724;23;20568;-82
2022/09/13 09:47:40;;;;;;;1.23;0.65;;;36.90;38.00;;;;;;6081027;23;20006;-82
2022/09/13 09:50:21;;;;;;;0.65;0.60;;;36.40;38.70;;;;;;6085819;23;20065;-84
2022/09/13 09:53:05;;;;;;;3.92;1.00;;;36.40;39.00;;;;;;6086739;23;20089;-81
2022/09/13 09:55:33;;;;;;;1.52;0.90;;;;;;;;;;6060280;23;20551;-81
2022/09/13 09:58:05;;;;;;;3.20;0.88;;;36.20;37.60;;;;;;6082957;23;20018;-80
2022/09/13 10:00:34;;;;;;;2.40;0.80;;;38.60;37.30;;;;;;6085851;23;20013;-80
2022/09/13 10:03:04;;;;;;;2.88;0.90;;;40.00;43.70;;;;;;6087014;23;20474;-82
2022/09/13 10:05:31;;;;;;;0.63;0.40;;;;;;;;;;6084805;23;20015;-82
2022/09/13 10:08:07;;;;;;;3.20;0.90;;;42.10;36.80;;;;;;6083915;23;20446;-82
2022/09/13 10:10:37;;;;;;;;;;;42.10;35.20;;;;;;6129826;23;20408;-80
2022/09/13 10:13:06;;;;;;;7.30;1.23;;;45.80;31.80;;;;;;6178611;23;19908;-79
2022/09/13 10:15:34;;;;;;;2.35;1.20;;;47.80;30.70;;;;;;6175526;23;20054;-84
2022/09/13 10:18:16;;;;;;;2.25;0.70;;;48.70;34.90;;;;;;6173410;23;20043;-83
2022/09/13 10:21:02;;;;;;;1.33;0.60;;;49.70;29.40;;;;;;6177853;23;20092;-80
2022/09/13 10:23:28;;;;;;;1.48;0.85;;;;;;;;;;6178874;23;19997;-79
2022/09/13 10:26:09;;;;;;;2.75;0.70;;;47.40;29.30;;;;;;6172042;23;20024;-80
2022/09/13 10:28:41;;;;;;;4.30;0.70;;;45.80;30.40;;;;;;6176811;23;20009;-79
2022/09/13 10:31:11;;;;;;;5.50;0.70;;;46.00;30.30;;;;;;6178556;23;20012;-79
2022/09/13 10:33:49;;;;;;;3.08;0.40;;;44.40;30.70;;;;;;6178543;23;20032;-79
2022/09/13 10:36:23;;;;;;;1.30;0.40;;;44.30;31.50;;;;;;6171922;23;20645;-79
2022/09/13 10:39:01;;;;;;;3.60;0.50;;;43.70;32.00;;;;;;6176931;23;20007;-79
2022/09/13 10:41:34;;;;;;;2.78;0.40;;;43.60;32.10;;;;;;6177997;23;20005;-81
2022/09/13 10:44:01;;;;;;;3.97;0.60;;;42.60;39.10;;;;;;6178332;23;20007;-81
2022/09/13 10:46:31;;;;;;;2.85;0.50;;;41.80;40.90;;;;;;6170890;23;20017;-80
2022/09/13 10:48:57;;;;;;;1.65;0.90;;;;;;;;;;6177520;23;20008;-80
2022/09/13 10:51:26;;;;;;;1.13;0.40;;;43.10;33.50;;;;;;6177790;23;20456;-80
2022/09/13 10:54:19;;;;;;;1.35;0.30;;;43.90;38.30;;;;;;6178224;23;19997;-84
2022/09/13 10:56:46;;;;;;;2.22;0.38;;;43.70;32.40;;;;;;6172277;23;20001;-85
2022/09/13 10:59:17;;;;;;;2.08;0.32;;;43.70;32.20;;;;;;6176919;23;20005;-84
2022/09/13 11:01:43;;;;;;;2.50;0.47;;;;;;;;;;6176285;23;20023;-83
2022/09/13 11:04:34;;;;;;;3.08;0.38;;;42.70;32.60;;;;;;6177986;23;20005;-84
2022/09/13 11:07:20;;;;;;;5.85;0.32;;;41.20;34.40;;;;;;6171200;23;20012;-83
2022/09/13 11:10:02;;;;;;;2.20;1.15;;;40.50;42.80;;;;;;6176626;23;20444;-82
2022/09/13 11:13:01;;;;;;;0.50;0.30;;;40.10;35.40;;;;;;6177187;23;20867;-82
2022/09/13 11:15:27;;;;;;;0.98;0.40;;;;;;;;;;6171534;23;20071;-83
2022/09/13 11:18:22;;;;;;;1.40;0.60;;;38.50;39.70;;;;;;6173192;23;20028;-84
2022/09/13 11:21:00;;;;;;;0.82;0.32;;;38.50;37.60;;;;;;6177588;23;20001;-82
2022/09/13 11:24:00;;;;;;;1.40;0.45;;;37.80;38.30;;;;;;6149931;23;20028;-82
2022/09/13 11:26:56;;;;;;;0.73;0.45;;;38.10;38.50;;;;;;6080548;23;20050;-82
2022/09/13 11:29:50;;;;;;;4.22;0.70;;;37.90;43.80;;;;;;6083554;23;20009;-81
2022/09/13 11:32:31;;;;;;;2.33;0.70;;;36.70;42.60;;;;;;6085070;23;20507;-82
2022/09/13 11:35:18;;;;;;;1.17;0.45;;;36.40;40.90;;;;;;6085696;23;20006;-82
2022/09/13 11:37:58;;;;;;;2.97;0.88;;;36.00;41.70;;;;;;6079992;23;20011;-82
2022/09/13 11:40:35;;;;;;;2.10;0.60;;;36.20;44.00;;;;;;6085147;23;20009;-82
2022/09/13 11:43:10;;;;;;;4.45;0.40;;;36.60;45.70;;;;;;6084897;23;20017;-80
2022/09/13 11:45:49;;;;;;;2.60;0.80;;;36.50;41.00;;;;;;6082994;23;20022;-79
2022/09/13 11:48:55;;;;;;;0.73;0.50;;;36.30;41.70;;;;;;6083184;23;20002;-77
2022/09/13 11:51:53;;;;;;;2.00;0.52;;;36.00;46.80;;;;;;6000104;23;20046;-77
2022/09/13 11:54:28;;;;;;;1.33;0.75;;;36.20;43.00;;;;;;5943242;24;20083;-82
2022/09/13 11:57:07;;;;;;;0.90;0.52;;;36.40;42.00;;;;;;5938145;24;20095;-82
2022/09/13 11:59:39;;;;;;;1.85;0.55;;;36.40;41.80;;;;;;5942688;24;20152;-82
2022/09/13 12:02:14;;;;;;;1.85;0.82;;;;;;;;;;5943973;24;20016;-82
2022/09/13 12:05:02;;;;;;;2.78;0.90;;;35.10;45.10;;;;;;6027756;23;20145;-83
2022/09/13 12:07:43;;;;;;;3.05;0.50;;;35.20;42.70;;;;;;6022312;23;20007;-82
2022/09/13 12:10:29;;;;;;;7.13;1.23;;;35.40;42.90;;;;;;6027201;23;20011;-82
2022/09/13 12:12:57;;;;;;;4.75;1.48;;;35.60;42.70;;;;;;6027904;23;20039;-82
2022/09/13 12:15:35;;;;;;;1.42;0.70;;;35.80;42.60;;;;;;6026512;23;20015;-82
2022/09/13 12:18:08;;;;;;;1.55;0.90;;;36.00;48.10;;;;;;6025060;23;20038;-82
2022/09/13 12:20:41;;;;;;;1.05;0.43;;;35.80;42.30;;;;;;6028231;23;20168;-82
2022/09/13 12:23:15;;;;;;;1.10;0.50;;;35.80;42.10;;;;;;6027528;23;20045;-82
2022/09/13 12:25:57;;;;;;;5.43;0.73;;;35.90;42.30;;;;;;6049334;23;20023;-81
2022/09/13 12:28:48;;;;;;;2.53;0.55;;;35.60;42.20;;;;;;6111458;23;20316;-81
2022/09/13 12:31:21;;;;;;;2.22;1.00;;;35.20;47.70;;;;;;6176630;23;20033;-81
2022/09/13 12:33:48;;;;;;;2.15;1.02;;;34.80;45.80;;;;;;6177602;23;20016;-81
2022/09/13 12:36:24;;;;;;;;;;;35.00;43.30;;;;;;6171735;23;20001;-81
2022/09/13 12:38:55;;;;;;;4.30;0.60;;;34.80;43.50;;;;;;6175551;23;19901;-82
2022/09/13 12:41:40;;;;;;;1.98;0.52;;;34.60;46.10;;;;;;6176998;23;20008;-82
2022/09/13 12:44:30;;;;;;;2.63;0.75;;;34.50;43.30;;;;;;6176749;23;20012;-81
2022/09/13 12:47:22;;;;;;;4.20;0.85;;;34.50;43.90;;;;;;6171441;23;20017;-81
2022/09/13 12:49:57;;;;;;;1.40;0.52;;;;;;;;;;6177159;23;20008;-81
2022/09/13 12:52:32;;;;;;;4.63;0.75;;;34.50;43.80;;;;;;6178665;23;20016;-78
2022/09/13 12:55:19;;;;;;;2.08;0.47;;;34.10;47.60;;;;;;6179071;23;20009;-79
2022/09/13 12:57:50;;;;;;;0.75;0.35;;;33.90;44.30;;;;;;6173714;23;20040;-79
2022/09/13 13:00:19;;;;;;;5.90;0.82;;;33.80;44.60;;;;;;6177347;23;20001;-79
2022/09/13 13:02:48;;;;;;;2.80;1.08;;;33.90;45.10;;;;;;6178863;23;20005;-79
2022/09/13 13:05:23;;;;;;;4.30;0.43;;;34.00;45.00;;;;;;6178478;23;20035;-79
2022/09/13 13:07:56;;;;;;;1.13;0.50;;;34.10;49.70;;;;;;6174815;23;20036;-79
2022/09/13 13:10:39;;;;;;;1.05;0.60;;;34.30;54.50;;;;;;6177636;23;20001;-79
2022/09/13 13:13:20;;;;;;;2.58;0.70;;;34.70;44.50;;;;;;6176864;23;20537;-80
2022/09/13 13:15:45;;;;;;;1.55;0.60;;;;;;;;;;6175938;23;20021;-79
2022/09/13 13:18:26;;;;;;;2.15;0.47;;;35.10;49.20;;;;;;6175017;23;20352;-79
2022/09/13 13:20:54;;;;;;;2.78;0.80;;;35.50;42.30;;;;;;6178385;23;20009;-79
2022/09/13 13:23:25;;;;;;;4.43;0.57;;;35.50;42.20;;;;;;6178394;23;20519;-79
2022/09/13 13:26:10;;;;;;;6.72;0.77;;;35.50;41.90;;;;;;6174873;23;20020;-79
2022/09/13 13:28:42;;;;;;;6.68;0.80;;;35.80;45.80;;;;;;6175772;23;20009;-79
2022/09/13 13:31:30;;;;;;;5.75;0.65;;;36.40;43.20;;;;;;6178814;23;20356;-79
2022/09/13 13:34:00;;;;;;;0.63;0.50;;;35.20;42.60;;;;;;6178410;23;20143;-79
2022/09/13 13:36:41;;;;;;;2.03;0.60;;;35.00;43.00;;;;;;6173538;23;20131;-78
2022/09/13 13:39:11;;;;;;;1.75;0.70;;;34.50;44.00;;;;;;6178190;23;20028;-80
2022/09/13 13:41:51;;;;;;;2.65;1.45;;;34.20;44.50;;;;;;6179218;23;20009;-79
2022/09/13 13:44:20;;;;;;;5.10;0.70;;;33.80;45.50;;;;;;6177073;23;20428;-80
2022/09/13 13:46:47;;;;;;;4.72;0.52;;;33.50;51.30;;;;;;6173004;23;20483;-79
2022/09/13 13:49:31;;;;;;;3.58;0.65;;;31.20;45.00;;;;;;6177733;23;20040;-79
2022/09/13 13:52:16;;;;;;;2.63;0.98;;;33.60;45.60;;;;;;6178981;23;20009;-79
2022/09/13 13:54:46;;;;;;;1.65;1.08;;;;;;;;;;6178674;23;20005;-79